createdAt,value
2023-04-07T00:02:22.272Z,7.40
2023-04-07T00:07:25.555Z,7.40
2023-04-07T00:12:30.050Z,7.30
2023-04-07T00:17:33.136Z,7.30
2023-04-07T00:22:36.333Z,7.20
2023-04-07T00:27:40.804Z,7.30
2023-04-07T00:32:45.545Z,7.30
2023-04-07T00:37:48.886Z,7.30
2023-04-07T00:42:53.834Z,7.30
2023-04-07T00:47:58.732Z,7.40
2023-04-07T00:53:02.522Z,7.30
2023-04-07T00:58:07.163Z,7.20
2023-04-07T01:03:15.022Z,7.20
2023-04-07T01:08:24.529Z,7.10
2023-04-07T01:13:32.896Z,7.10
2023-04-07T01:18:37.937Z,7.10
2023-04-07T01:23:53.748Z,7.10
2023-04-07T01:29:23.152Z,7.00
2023-04-07T01:34:30.832Z,6.90
2023-04-07T01:39:34.910Z,6.80
2023-04-07T01:44:38.655Z,6.60
2023-04-07T01:49:44.862Z,6.50
2023-04-07T01:54:48.272Z,6.50
2023-04-07T01:59:51.380Z,6.40
2023-04-07T02:04:57.801Z,6.30
2023-04-07T02:10:04.341Z,6.20
2023-04-07T02:15:11.310Z,6.10
2023-04-07T02:20:17.073Z,6.00
2023-04-07T02:25:24.650Z,6.00
2023-04-07T02:30:28.449Z,6.00
2023-04-07T02:35:32.877Z,6.00
2023-04-07T02:40:36.707Z,6.10
2023-04-07T02:45:42.381Z,6.10
2023-04-07T02:50:46.901Z,6.10
2023-04-07T02:55:49.987Z,6.20
2023-04-07T03:00:53.078Z,6.30
2023-04-07T03:05:57.552Z,6.30
2023-04-07T03:11:00.640Z,6.30
2023-04-07T03:16:05.084Z,6.30
2023-04-07T03:21:09.550Z,6.30
2023-04-07T03:26:12.713Z,6.30
2023-04-07T03:31:15.982Z,6.30
2023-04-07T03:36:20.591Z,6.20
2023-04-07T03:41:23.704Z,6.20
2023-04-07T03:46:27.356Z,6.10
2023-04-07T03:51:33.041Z,6.20
2023-04-07T03:56:37.543Z,6.20
2023-04-07T04:01:40.799Z,6.30
2023-04-07T04:06:45.296Z,6.20
2023-04-07T04:11:48.480Z,6.20
2023-04-07T04:16:51.554Z,6.30
2023-04-07T04:21:56.172Z,6.30
2023-04-07T04:26:59.262Z,6.30
2023-04-07T04:32:02.358Z,6.20
2023-04-07T04:37:07.058Z,6.20
2023-04-07T04:42:10.202Z,6.20
2023-04-07T04:47:13.302Z,6.20
2023-04-07T04:52:17.856Z,6.30
2023-04-07T04:57:20.998Z,6.30
2023-04-07T05:02:24.280Z,6.30
2023-04-07T05:07:28.912Z,6.30
2023-04-07T05:12:32.054Z,6.30
2023-04-07T05:17:35.156Z,6.30
2023-04-07T05:22:39.609Z,6.40
2023-04-07T05:27:45.946Z,6.40
2023-04-07T05:32:49.071Z,6.50
2023-04-07T05:37:53.585Z,6.50
2023-04-07T05:42:56.697Z,6.60
2023-04-07T05:47:59.943Z,6.60
2023-04-07T05:53:04.420Z,6.60
2023-04-07T05:58:07.531Z,6.70
2023-04-07T06:03:10.735Z,6.70
2023-04-07T06:08:15.274Z,6.80
2023-04-07T06:13:18.365Z,6.80
2023-04-07T06:18:21.460Z,6.90
2023-04-07T06:23:25.979Z,7.00
2023-04-07T06:28:29.105Z,7.10
2023-04-07T06:33:32.322Z,7.10
2023-04-07T06:38:38.852Z,7.20
2023-04-07T06:43:42.213Z,7.30
2023-04-07T06:48:45.429Z,7.40
2023-04-07T06:53:50.206Z,7.50
2023-04-07T06:58:53.403Z,7.50
2023-04-07T07:03:56.607Z,7.60
2023-04-07T07:09:03.198Z,7.70
2023-04-07T07:14:06.290Z,7.80
2023-04-07T07:19:09.642Z,7.90
2023-04-07T07:24:14.089Z,8.00
2023-04-07T07:29:17.262Z,8.10
2023-04-07T07:34:20.370Z,8.20
2023-04-07T07:39:24.818Z,8.40
2023-04-07T07:44:27.976Z,8.60
2023-04-07T07:49:31.110Z,8.70
2023-04-07T07:54:35.803Z,9.00
2023-04-07T07:59:40.638Z,9.20
2023-04-07T08:04:43.938Z,9.40
2023-04-07T08:09:48.437Z,9.60
2023-04-07T08:14:51.538Z,9.80
2023-04-07T08:19:54.616Z,10.00
2023-04-07T08:24:59.071Z,10.20
2023-04-07T08:30:03.698Z,10.40
2023-04-07T08:35:07.533Z,10.50
2023-04-07T08:40:13.255Z,10.70
2023-04-07T08:45:18.553Z,10.90
2023-04-07T08:50:22.733Z,11.00
2023-04-07T08:55:27.256Z,11.20
2023-04-07T09:00:31.928Z,11.40
2023-04-07T09:05:35.775Z,11.60
2023-04-07T09:10:40.353Z,11.70
2023-04-07T09:15:43.652Z,11.90
2023-04-07T09:20:59.726Z,12.00
2023-04-07T09:26:22.166Z,12.20
2023-04-07T09:31:44.282Z,12.40
2023-04-07T09:36:47.613Z,12.50
2023-04-07T09:41:52.575Z,12.60
2023-04-07T09:46:57.588Z,12.80
2023-04-07T09:52:04.993Z,12.90
2023-04-07T09:57:10.983Z,13.00
2023-04-07T10:02:14.137Z,13.20
2023-04-07T10:07:17.412Z,13.30
2023-04-07T10:12:22.596Z,13.40
2023-04-07T10:17:25.987Z,13.50
2023-04-07T10:22:30.220Z,13.60
2023-04-07T10:27:41.179Z,13.70
2023-04-07T10:32:49.020Z,13.80
2023-04-07T10:38:17.213Z,13.90
2023-04-07T10:43:39.725Z,14.00
2023-04-07T10:48:42.835Z,14.00
2023-04-07T10:54:20.625Z,14.10
2023-04-07T10:59:27.800Z,14.10
2023-04-07T11:04:38.410Z,14.20
2023-04-07T11:09:42.333Z,14.20
2023-04-07T11:14:46.983Z,14.30
2023-04-07T11:19:57.610Z,14.30
2023-04-07T11:25:02.885Z,14.30
2023-04-07T11:30:12.570Z,14.40
2023-04-07T11:35:16.262Z,14.50
2023-04-07T11:40:34.387Z,14.60
2023-04-07T11:45:38.909Z,14.60
2023-04-07T11:50:43.851Z,14.70
2023-04-07T11:55:47.142Z,14.70
2023-04-07T12:00:58.377Z,14.80
2023-04-07T12:06:02.039Z,14.80
2023-04-07T12:11:05.820Z,14.80
2023-04-07T12:16:10.367Z,14.80
2023-04-07T12:21:13.522Z,14.90
2023-04-07T12:26:16.619Z,15.00
2023-04-07T12:31:21.789Z,15.20
2023-04-07T12:36:24.890Z,15.20
2023-04-07T12:41:27.990Z,15.30
2023-04-07T12:46:32.642Z,15.30
2023-04-07T12:51:35.956Z,15.30
2023-04-07T12:56:40.353Z,15.30
2023-04-07T13:01:44.921Z,15.30
2023-04-07T13:06:48.071Z,15.30
2023-04-07T13:11:51.373Z,15.30
2023-04-07T13:16:56.198Z,15.30
2023-04-07T13:21:59.310Z,15.30
2023-04-07T13:27:02.953Z,15.30
2023-04-07T13:32:08.217Z,15.30
2023-04-07T13:37:11.589Z,15.30
2023-04-07T13:42:17.591Z,15.30
2023-04-07T13:47:22.819Z,15.30
2023-04-07T13:52:26.765Z,15.30
2023-04-07T13:57:29.867Z,15.30
2023-04-07T14:02:34.542Z,15.40
2023-04-07T14:07:37.622Z,15.50
2023-04-07T14:12:41.184Z,15.50
2023-04-07T14:17:45.711Z,15.60
2023-04-07T14:22:48.904Z,15.60
2023-04-07T14:27:52.745Z,15.60
2023-04-07T14:32:57.286Z,15.60
2023-04-07T14:38:00.491Z,15.60
2023-04-07T14:43:07.175Z,15.60
2023-04-07T14:48:13.559Z,15.60
2023-04-07T14:53:17.215Z,15.60
2023-04-07T14:58:20.423Z,15.60
2023-04-07T15:03:25.155Z,15.50
2023-04-07T15:08:28.502Z,15.40
2023-04-07T15:13:31.628Z,15.40
2023-04-07T15:18:36.242Z,15.40
2023-04-07T15:23:41.694Z,15.40
2023-04-07T15:28:44.943Z,15.40
2023-04-07T15:33:49.646Z,15.30
2023-04-07T15:38:53.016Z,15.30
2023-04-07T15:43:58.722Z,15.20
2023-04-07T15:49:03.183Z,15.20
2023-04-07T15:54:06.378Z,15.20
2023-04-07T15:59:09.436Z,15.20
2023-04-07T16:04:14.279Z,15.30
2023-04-07T16:09:17.712Z,15.30
2023-04-07T16:14:20.777Z,15.30
2023-04-07T16:19:25.337Z,15.30
2023-04-07T16:24:28.408Z,15.30
2023-04-07T16:29:31.475Z,15.30
2023-04-07T16:34:36.079Z,15.30
2023-04-07T16:39:39.256Z,15.30
2023-04-07T16:44:42.335Z,15.30
2023-04-07T16:49:46.799Z,15.30
2023-04-07T16:54:49.904Z,15.30
2023-04-07T16:59:53.012Z,15.30
2023-04-07T17:04:57.459Z,15.20
2023-04-07T17:10:00.902Z,15.20
2023-04-07T17:15:04.105Z,15.10
2023-04-07T17:20:10.837Z,15.10
2023-04-07T17:25:13.972Z,15.00
2023-04-07T17:30:18.223Z,14.80
2023-04-07T17:35:22.892Z,14.70
2023-04-07T17:40:25.959Z,14.60
2023-04-07T17:45:29.134Z,14.50
2023-04-07T17:50:33.611Z,14.50
2023-04-07T17:55:36.742Z,14.40
2023-04-07T18:00:39.953Z,14.40
2023-04-07T18:05:46.373Z,14.30
2023-04-07T18:10:49.439Z,14.20
2023-04-07T18:15:53.002Z,14.20
2023-04-07T18:20:57.596Z,14.10
2023-04-07T18:26:03.920Z,14.00
2023-04-07T18:31:08.501Z,13.90
2023-04-07T18:36:14.444Z,13.90
2023-04-07T18:41:17.601Z,13.80
2023-04-07T18:46:20.794Z,13.80
2023-04-07T18:51:25.953Z,13.70
2023-04-07T18:56:29.946Z,13.70
2023-04-07T19:01:33.150Z,13.60
2023-04-07T19:06:37.709Z,13.60
2023-04-07T19:11:41.622Z,13.50
2023-04-07T19:16:44.849Z,13.40
2023-04-07T19:21:49.352Z,13.40
2023-04-07T19:26:52.740Z,13.20
2023-04-07T19:31:57.341Z,13.00
2023-04-07T19:37:01.880Z,12.90
2023-04-07T19:42:05.269Z,12.70
2023-04-07T19:47:08.408Z,12.60
2023-04-07T19:52:12.858Z,12.60
2023-04-07T19:57:16.441Z,12.50
2023-04-07T20:02:19.558Z,12.40
2023-04-07T20:07:24.067Z,12.20
2023-04-07T20:12:27.222Z,12.00
2023-04-07T20:17:32.534Z,11.80
2023-04-07T20:22:37.149Z,11.70
2023-04-07T20:27:40.265Z,11.60
2023-04-07T20:32:43.459Z,11.50
2023-04-07T20:37:48.146Z,11.40
2023-04-07T20:42:51.937Z,11.30
2023-04-07T20:47:55.127Z,11.20
2023-04-07T20:52:59.636Z,11.00
2023-04-07T20:58:03.002Z,11.00
2023-04-07T21:03:06.342Z,10.90
2023-04-07T21:08:12.782Z,10.80
2023-04-07T21:13:17.042Z,10.80
2023-04-07T21:18:20.123Z,10.70
2023-04-07T21:23:24.602Z,10.50
2023-04-07T21:28:27.719Z,10.20
2023-04-07T21:33:30.858Z,10.10
2023-04-07T21:38:35.395Z,9.90
2023-04-07T21:43:38.476Z,9.80
2023-04-07T21:48:41.546Z,9.70
2023-04-07T21:53:46.017Z,9.60
2023-04-07T21:58:49.296Z,9.50
2023-04-07T22:03:52.569Z,9.40
2023-04-07T22:09:01.707Z,9.30
2023-04-07T22:14:05.421Z,9.20
2023-04-07T22:19:08.503Z,9.20
2023-04-07T22:24:12.979Z,9.20
2023-04-07T22:29:16.111Z,9.10
2023-04-07T22:34:19.735Z,9.10
2023-04-07T22:39:24.712Z,9.10
2023-04-07T22:44:27.769Z,9.00
2023-04-07T22:49:31.691Z,8.90
2023-04-07T22:54:36.208Z,8.90
2023-04-07T22:59:39.348Z,8.80
2023-04-07T23:04:42.428Z,8.80
2023-04-07T23:09:46.878Z,8.70
2023-04-07T23:14:49.971Z,8.50
2023-04-07T23:19:53.033Z,8.40
2023-04-07T23:24:57.608Z,8.20
2023-04-07T23:30:00.686Z,8.10
2023-04-07T23:35:03.994Z,8.10
2023-04-07T23:40:10.966Z,8.10
2023-04-07T23:45:14.134Z,8.00
2023-04-07T23:50:17.430Z,8.00
2023-04-07T23:55:21.968Z,8.00
